sensor_id;sensor_type;location;lat;lon;timestamp;P1;P2;P0
36453;PMS5003;22478;51.740;-1.314;2023-04-15T00:00:23;138;123;
36453;PMS5003;22478;51.740;-1.314;2023-04-15T00:02:50;143;123;
36453;PMS5003;22478;51.740;-1.314;2023-04-15T00:05:18;144;132;
36453;PMS5003;22478;51.740;-1.314;2023-04-15T00:07:45;142;128;
36453;PMS5003;22478;51.740;-1.314;2023-04-15T00:10:13;150;131;
36453;PMS5003;22478;51.740;-1.314;2023-04-15T00:12:40;127;119;
36453;PMS5003;22478;51.740;-1.314;2023-04-15T00:15:08;154;136;
36453;PMS5003;22478;51.740;-1.314;2023-04-15T00:17:36;172;151;
36453;PMS5003;22478;51.740;-1.314;2023-04-15T00:20:03;157;153;
36453;PMS5003;22478;51.740;-1.314;2023-04-15T00:22:31;145;138;
36453;PMS5003;22478;51.740;-1.314;2023-04-15T00:24:58;142;137;
36453;PMS5003;22478;51.740;-1.314;2023-04-15T00:27:25;156;139;
36453;PMS5003;22478;51.740;-1.314;2023-04-15T00:29:52;149;133;
36453;PMS5003;22478;51.740;-1.314;2023-04-15T00:32:20;162;140;
36453;PMS5003;22478;51.740;-1.314;2023-04-15T00:34:47;141;127;
36453;PMS5003;22478;51.740;-1.314;2023-04-15T00:37:14;140;138;
36453;PMS5003;22478;51.740;-1.314;2023-04-15T00:39:41;170;150;
36453;PMS5003;22478;51.740;-1.314;2023-04-15T00:42:08;139;136;
36453;PMS5003;22478;51.740;-1.314;2023-04-15T00:44:36;140;137;
36453;PMS5003;22478;51.740;-1.314;2023-04-15T00:47:03;157;135;
36453;PMS5003;22478;51.740;-1.314;2023-04-15T00:49:32;135;129;
36453;PMS5003;22478;51.740;-1.314;2023-04-15T00:51:59;148;130;
36453;PMS5003;22478;51.740;-1.314;2023-04-15T00:54:26;150;131;
36453;PMS5003;22478;51.740;-1.314;2023-04-15T00:56:54;140;129;
36453;PMS5003;22478;51.740;-1.314;2023-04-15T00:59:21;158;135;
36453;PMS5003;22478;51.740;-1.314;2023-04-15T01:01:48;149;135;
36453;PMS5003;22478;51.740;-1.314;2023-04-15T01:04:17;149;130;
36453;PMS5003;22478;51.740;-1.314;2023-04-15T01:06:44;145;124;
36453;PMS5003;22478;51.740;-1.314;2023-04-15T01:09:12;160;143;
36453;PMS5003;22478;51.740;-1.314;2023-04-15T01:11:39;137;124;
36453;PMS5003;22478;51.740;-1.314;2023-04-15T01:14:08;134;124;
36453;PMS5003;22478;51.740;-1.314;2023-04-15T01:16:36;142;123;
36453;PMS5003;22478;51.740;-1.314;2023-04-15T01:19:04;145;127;
36453;PMS5003;22478;51.740;-1.314;2023-04-15T01:21:35;144;129;
36453;PMS5003;22478;51.740;-1.314;2023-04-15T01:24:03;149;131;
36453;PMS5003;22478;51.740;-1.314;2023-04-15T01:26:35;168;144;
36453;PMS5003;22478;51.740;-1.314;2023-04-15T01:29:04;163;143;
36453;PMS5003;22478;51.740;-1.314;2023-04-15T01:31:31;163;142;
36453;PMS5003;22478;51.740;-1.314;2023-04-15T01:33:58;158;142;
36453;PMS5003;22478;51.740;-1.314;2023-04-15T01:36:26;148;130;
36453;PMS5003;22478;51.740;-1.314;2023-04-15T01:38:54;146;137;
36453;PMS5003;22478;51.740;-1.314;2023-04-15T01:41:24;139;127;
36453;PMS5003;22478;51.740;-1.314;2023-04-15T01:43:51;144;135;
36453;PMS5003;22478;51.740;-1.314;2023-04-15T01:46:19;145;133;
36453;PMS5003;22478;51.740;-1.314;2023-04-15T01:48:46;154;133;
36453;PMS5003;22478;51.740;-1.314;2023-04-15T01:51:13;163;142;
36453;PMS5003;22478;51.740;-1.314;2023-04-15T01:53:40;144;138;
36453;PMS5003;22478;51.740;-1.314;2023-04-15T01:56:08;154;138;
36453;PMS5003;22478;51.740;-1.314;2023-04-15T01:58:35;161;139;
36453;PMS5003;22478;51.740;-1.314;2023-04-15T02:01:03;152;130;
36453;PMS5003;22478;51.740;-1.314;2023-04-15T02:03:30;148;129;
36453;PMS5003;22478;51.740;-1.314;2023-04-15T02:05:58;144;134;
36453;PMS5003;22478;51.740;-1.314;2023-04-15T02:08:25;150;130;
36453;PMS5003;22478;51.740;-1.314;2023-04-15T02:10:52;149;141;
36453;PMS5003;22478;51.740;-1.314;2023-04-15T02:13:19;155;135;
36453;PMS5003;22478;51.740;-1.314;2023-04-15T02:15:47;148;138;
36453;PMS5003;22478;51.740;-1.314;2023-04-15T02:18:15;147;130;
36453;PMS5003;22478;51.740;-1.314;2023-04-15T02:20:42;160;142;
36453;PMS5003;22478;51.740;-1.314;2023-04-15T02:23:09;159;137;
36453;PMS5003;22478;51.740;-1.314;2023-04-15T02:25:36;156;140;
36453;PMS5003;22478;51.740;-1.314;2023-04-15T02:28:04;159;143;
36453;PMS5003;22478;51.740;-1.314;2023-04-15T02:30:31;155;137;
36453;PMS5003;22478;51.740;-1.314;2023-04-15T02:32:59;141;137;
36453;PMS5003;22478;51.740;-1.314;2023-04-15T02:35:26;137;133;
36453;PMS5003;22478;51.740;-1.314;2023-04-15T02:37:54;159;139;
36453;PMS5003;22478;51.740;-1.314;2023-04-15T02:40:21;151;142;
36453;PMS5003;22478;51.740;-1.314;2023-04-15T02:42:48;163;142;
36453;PMS5003;22478;51.740;-1.314;2023-04-15T02:45:16;164;133;
36453;PMS5003;22478;51.740;-1.314;2023-04-15T02:47:43;150;133;
36453;PMS5003;22478;51.740;-1.314;2023-04-15T02:50:11;152;131;
36453;PMS5003;22478;51.740;-1.314;2023-04-15T02:52:38;154;133;
36453;PMS5003;22478;51.740;-1.314;2023-04-15T02:55:05;155;138;
36453;PMS5003;22478;51.740;-1.314;2023-04-15T02:57:33;154;133;
36453;PMS5003;22478;51.740;-1.314;2023-04-15T03:00:01;138;136;
36453;PMS5003;22478;51.740;-1.314;2023-04-15T03:02:32;145;138;
36453;PMS5003;22478;51.740;-1.314;2023-04-15T03:05:00;161;140;
36453;PMS5003;22478;51.740;-1.314;2023-04-15T03:07:27;167;143;
36453;PMS5003;22478;51.740;-1.314;2023-04-15T03:09:55;149;133;
36453;PMS5003;22478;51.740;-1.314;2023-04-15T03:12:22;152;141;
36453;PMS5003;22478;51.740;-1.314;2023-04-15T03:14:49;131;129;
36453;PMS5003;22478;51.740;-1.314;2023-04-15T03:17:16;161;137;
36453;PMS5003;22478;51.740;-1.314;2023-04-15T03:19:44;154;132;
36453;PMS5003;22478;51.740;-1.314;2023-04-15T03:22:11;151;139;
36453;PMS5003;22478;51.740;-1.314;2023-04-15T03:24:39;158;138;
36453;PMS5003;22478;51.740;-1.314;2023-04-15T03:27:06;163;140;
36453;PMS5003;22478;51.740;-1.314;2023-04-15T03:29:32;157;137;
36453;PMS5003;22478;51.740;-1.314;2023-04-15T03:32:00;153;140;
36453;PMS5003;22478;51.740;-1.314;2023-04-15T03:34:27;156;136;
36453;PMS5003;22478;51.740;-1.314;2023-04-15T03:36:55;165;144;
36453;PMS5003;22478;51.740;-1.314;2023-04-15T03:39:22;145;131;
36453;PMS5003;22478;51.740;-1.314;2023-04-15T03:41:49;147;136;
36453;PMS5003;22478;51.740;-1.314;2023-04-15T03:44:16;167;147;
36453;PMS5003;22478;51.740;-1.314;2023-04-15T03:46:43;144;133;
36453;PMS5003;22478;51.740;-1.314;2023-04-15T03:49:10;179;147;
36453;PMS5003;22478;51.740;-1.314;2023-04-15T03:51:39;160;137;
36453;PMS5003;22478;51.740;-1.314;2023-04-15T03:54:06;169;148;
36453;PMS5003;22478;51.740;-1.314;2023-04-15T03:56:33;156;133;
36453;PMS5003;22478;51.740;-1.314;2023-04-15T03:59:00;164;145;
36453;PMS5003;22478;51.740;-1.314;2023-04-15T04:01:28;152;139;
36453;PMS5003;22478;51.740;-1.314;2023-04-15T04:03:55;172;151;
36453;PMS5003;22478;51.740;-1.314;2023-04-15T04:06:22;164;143;
36453;PMS5003;22478;51.740;-1.314;2023-04-15T04:08:49;147;137;
36453;PMS5003;22478;51.740;-1.314;2023-04-15T04:11:17;166;143;
36453;PMS5003;22478;51.740;-1.314;2023-04-15T04:13:44;159;147;
36453;PMS5003;22478;51.740;-1.314;2023-04-15T04:16:11;145;133;
36453;PMS5003;22478;51.740;-1.314;2023-04-15T04:18:38;157;137;
36453;PMS5003;22478;51.740;-1.314;2023-04-15T04:21:05;165;146;
36453;PMS5003;22478;51.740;-1.314;2023-04-15T04:23:32;173;148;
36453;PMS5003;22478;51.740;-1.314;2023-04-15T04:25:59;149;133;
36453;PMS5003;22478;51.740;-1.314;2023-04-15T04:28:27;170;149;
36453;PMS5003;22478;51.740;-1.314;2023-04-15T04:30:54;152;143;
36453;PMS5003;22478;51.740;-1.314;2023-04-15T04:33:21;155;142;
36453;PMS5003;22478;51.740;-1.314;2023-04-15T04:35:49;167;148;
36453;PMS5003;22478;51.740;-1.314;2023-04-15T04:38:17;160;142;
36453;PMS5003;22478;51.740;-1.314;2023-04-15T04:40:44;151;142;
36453;PMS5003;22478;51.740;-1.314;2023-04-15T04:43:11;151;144;
36453;PMS5003;22478;51.740;-1.314;2023-04-15T04:45:38;152;136;
36453;PMS5003;22478;51.740;-1.314;2023-04-15T04:48:05;147;137;
36453;PMS5003;22478;51.740;-1.314;2023-04-15T04:50:33;155;135;
36453;PMS5003;22478;51.740;-1.314;2023-04-15T04:53:00;163;146;
36453;PMS5003;22478;51.740;-1.314;2023-04-15T04:55:28;156;137;
36453;PMS5003;22478;51.740;-1.314;2023-04-15T04:57:56;161;138;
36453;PMS5003;22478;51.740;-1.314;2023-04-15T05:00:23;150;131;
36453;PMS5003;22478;51.740;-1.314;2023-04-15T05:02:51;148;127;
36453;PMS5003;22478;51.740;-1.314;2023-04-15T05:05:18;158;146;
36453;PMS5003;22478;51.740;-1.314;2023-04-15T05:07:45;151;126;
36453;PMS5003;22478;51.740;-1.314;2023-04-15T05:10:12;158;136;
36453;PMS5003;22478;51.740;-1.314;2023-04-15T05:12:40;149;139;
36453;PMS5003;22478;51.740;-1.314;2023-04-15T05:15:07;153;136;
36453;PMS5003;22478;51.740;-1.314;2023-04-15T05:17:35;149;130;
36453;PMS5003;22478;51.740;-1.314;2023-04-15T05:20:02;152;135;
36453;PMS5003;22478;51.740;-1.314;2023-04-15T05:22:30;155;141;
36453;PMS5003;22478;51.740;-1.314;2023-04-15T05:24:57;151;134;
36453;PMS5003;22478;51.740;-1.314;2023-04-15T05:27:25;141;135;
36453;PMS5003;22478;51.740;-1.314;2023-04-15T05:29:52;161;144;
36453;PMS5003;22478;51.740;-1.314;2023-04-15T05:32:19;155;135;
36453;PMS5003;22478;51.740;-1.314;2023-04-15T05:34:46;165;144;
36453;PMS5003;22478;51.740;-1.314;2023-04-15T05:37:13;161;143;
36453;PMS5003;22478;51.740;-1.314;2023-04-15T05:39:41;160;139;
36453;PMS5003;22478;51.740;-1.314;2023-04-15T05:42:07;155;141;
36453;PMS5003;22478;51.740;-1.314;2023-04-15T05:44:35;169;153;
36453;PMS5003;22478;51.740;-1.314;2023-04-15T05:47:02;158;134;
36453;PMS5003;22478;51.740;-1.314;2023-04-15T05:49:29;148;138;
36453;PMS5003;22478;51.740;-1.314;2023-04-15T05:51:57;170;151;
36453;PMS5003;22478;51.740;-1.314;2023-04-15T05:54:25;152;139;
36453;PMS5003;22478;51.740;-1.314;2023-04-15T05:56:52;159;140;
36453;PMS5003;22478;51.740;-1.314;2023-04-15T05:59:20;166;143;
36453;PMS5003;22478;51.740;-1.314;2023-04-15T06:01:47;161;138;
36453;PMS5003;22478;51.740;-1.314;2023-04-15T06:04:15;161;141;
36453;PMS5003;22478;51.740;-1.314;2023-04-15T06:06:43;160;144;
36453;PMS5003;22478;51.740;-1.314;2023-04-15T06:09:10;152;145;
36453;PMS5003;22478;51.740;-1.314;2023-04-15T06:11:38;161;144;
36453;PMS5003;22478;51.740;-1.314;2023-04-15T06:14:05;171;153;
36453;PMS5003;22478;51.740;-1.314;2023-04-15T06:16:32;174;155;
36453;PMS5003;22478;51.740;-1.314;2023-04-15T06:18:59;163;146;
36453;PMS5003;22478;51.740;-1.314;2023-04-15T06:21:27;166;145;
36453;PMS5003;22478;51.740;-1.314;2023-04-15T06:23:54;179;155;
36453;PMS5003;22478;51.740;-1.314;2023-04-15T06:26:21;159;150;
36453;PMS5003;22478;51.740;-1.314;2023-04-15T06:28:49;179;151;
36453;PMS5003;22478;51.740;-1.314;2023-04-15T06:31:16;174;153;
36453;PMS5003;22478;51.740;-1.314;2023-04-15T06:33:43;180;158;
36453;PMS5003;22478;51.740;-1.314;2023-04-15T06:36:11;175;158;
36453;PMS5003;22478;51.740;-1.314;2023-04-15T06:38:38;171;149;
36453;PMS5003;22478;51.740;-1.314;2023-04-15T06:41:05;171;149;
36453;PMS5003;22478;51.740;-1.314;2023-04-15T06:43:33;176;153;
36453;PMS5003;22478;51.740;-1.314;2023-04-15T06:46:00;165;150;
36453;PMS5003;22478;51.740;-1.314;2023-04-15T06:48:27;152;146;
36453;PMS5003;22478;51.740;-1.314;2023-04-15T06:50:54;165;142;
36453;PMS5003;22478;51.740;-1.314;2023-04-15T06:53:21;161;140;
36453;PMS5003;22478;51.740;-1.314;2023-04-15T06:55:48;152;151;
36453;PMS5003;22478;51.740;-1.314;2023-04-15T06:58:15;158;141;
36453;PMS5003;22478;51.740;-1.314;2023-04-15T07:00:43;173;154;
36453;PMS5003;22478;51.740;-1.314;2023-04-15T07:03:10;162;142;
36453;PMS5003;22478;51.740;-1.314;2023-04-15T07:05:38;170;155;
36453;PMS5003;22478;51.740;-1.314;2023-04-15T07:08:05;165;147;
36453;PMS5003;22478;51.740;-1.314;2023-04-15T07:10:33;169;153;
36453;PMS5003;22478;51.740;-1.314;2023-04-15T07:13:00;159;154;
36453;PMS5003;22478;51.740;-1.314;2023-04-15T07:15:27;164;153;
36453;PMS5003;22478;51.740;-1.314;2023-04-15T07:17:55;161;150;
36453;PMS5003;22478;51.740;-1.314;2023-04-15T07:20:22;177;162;
36453;PMS5003;22478;51.740;-1.314;2023-04-15T07:22:50;159;147;
36453;PMS5003;22478;51.740;-1.314;2023-04-15T07:25:17;153;143;
36453;PMS5003;22478;51.740;-1.314;2023-04-15T07:27:45;161;142;
36453;PMS5003;22478;51.740;-1.314;2023-04-15T07:30:12;177;159;
36453;PMS5003;22478;51.740;-1.314;2023-04-15T07:32:40;176;155;
36453;PMS5003;22478;51.740;-1.314;2023-04-15T07:35:08;164;145;
36453;PMS5003;22478;51.740;-1.314;2023-04-15T07:37:35;158;142;
36453;PMS5003;22478;51.740;-1.314;2023-04-15T07:40:03;155;137;
36453;PMS5003;22478;51.740;-1.314;2023-04-15T07:42:31;154;135;
36453;PMS5003;22478;51.740;-1.314;2023-04-15T07:44:59;155;153;
36453;PMS5003;22478;51.740;-1.314;2023-04-15T07:47:26;162;145;
36453;PMS5003;22478;51.740;-1.314;2023-04-15T07:49:54;156;153;
36453;PMS5003;22478;51.740;-1.314;2023-04-15T07:52:21;157;144;
36453;PMS5003;22478;51.740;-1.314;2023-04-15T07:54:49;157;144;
36453;PMS5003;22478;51.740;-1.314;2023-04-15T07:57:16;151;135;
36453;PMS5003;22478;51.740;-1.314;2023-04-15T07:59:44;162;158;
36453;PMS5003;22478;51.740;-1.314;2023-04-15T08:02:11;161;148;
36453;PMS5003;22478;51.740;-1.314;2023-04-15T08:04:38;151;135;
36453;PMS5003;22478;51.740;-1.314;2023-04-15T08:07:06;154;138;
36453;PMS5003;22478;51.740;-1.314;2023-04-15T08:09:33;146;129;
36453;PMS5003;22478;51.740;-1.314;2023-04-15T08:12:00;127;125;
36453;PMS5003;22478;51.740;-1.314;2023-04-15T08:14:27;122;113;
36453;PMS5003;22478;51.740;-1.314;2023-04-15T08:16:55;128;119;
36453;PMS5003;22478;51.740;-1.314;2023-04-15T08:19:22;126;119;
36453;PMS5003;22478;51.740;-1.314;2023-04-15T08:21:49;123;118;
36453;PMS5003;22478;51.740;-1.314;2023-04-15T08:24:17;122;119;
36453;PMS5003;22478;51.740;-1.314;2023-04-15T08:26:44;125;117;
36453;PMS5003;22478;51.740;-1.314;2023-04-15T08:29:11;117;111;
36453;PMS5003;22478;51.740;-1.314;2023-04-15T08:31:39;116;113;
36453;PMS5003;22478;51.740;-1.314;2023-04-15T08:34:06;105;103;
36453;PMS5003;22478;51.740;-1.314;2023-04-15T08:36:33;97;91;
36453;PMS5003;22478;51.740;-1.314;2023-04-15T08:39:00;74;69;
36453;PMS5003;22478;51.740;-1.314;2023-04-15T08:41:27;70;70;
36453;PMS5003;22478;51.740;-1.314;2023-04-15T08:44:00;63;60;
36453;PMS5003;22478;51.740;-1.314;2023-04-15T08:46:29;67;62;
36453;PMS5003;22478;51.740;-1.314;2023-04-15T08:48:57;60;60;
36453;PMS5003;22478;51.740;-1.314;2023-04-15T08:51:25;87;85;
36453;PMS5003;22478;51.740;-1.314;2023-04-15T08:53:53;86;84;
36453;PMS5003;22478;51.740;-1.314;2023-04-15T08:56:21;76;73;
36453;PMS5003;22478;51.740;-1.314;2023-04-15T08:58:51;80;77;
36453;PMS5003;22478;51.740;-1.314;2023-04-15T09:01:19;67;64;
36453;PMS5003;22478;51.740;-1.314;2023-04-15T09:03:47;74;73;
36453;PMS5003;22478;51.740;-1.314;2023-04-15T09:06:15;68;63;
36453;PMS5003;22478;51.740;-1.314;2023-04-15T09:08:43;53;50;
36453;PMS5003;22478;51.740;-1.314;2023-04-15T09:11:11;82;74;
36453;PMS5003;22478;51.740;-1.314;2023-04-15T09:13:39;83;81;
36453;PMS5003;22478;51.740;-1.314;2023-04-15T09:16:06;60;57;
36453;PMS5003;22478;51.740;-1.314;2023-04-15T09:18:33;59;57;
36453;PMS5003;22478;51.740;-1.314;2023-04-15T09:21:03;61;57;
36453;PMS5003;22478;51.740;-1.314;2023-04-15T09:23:32;62;55;
36453;PMS5003;22478;51.740;-1.314;2023-04-15T09:25:59;57;55;
36453;PMS5003;22478;51.740;-1.314;2023-04-15T09:28:27;59;56;
36453;PMS5003;22478;51.740;-1.314;2023-04-15T09:30:55;66;58;
36453;PMS5003;22478;51.740;-1.314;2023-04-15T09:33:23;79;77;
36453;PMS5003;22478;51.740;-1.314;2023-04-15T09:35:57;76;76;
36453;PMS5003;22478;51.740;-1.314;2023-04-15T09:38:26;68;67;
36453;PMS5003;22478;51.740;-1.314;2023-04-15T09:40:54;78;74;
36453;PMS5003;22478;51.740;-1.314;2023-04-15T09:43:22;66;65;
36453;PMS5003;22478;51.740;-1.314;2023-04-15T09:46:02;76;68;
36453;PMS5003;22478;51.740;-1.314;2023-04-15T09:48:29;67;64;
36453;PMS5003;22478;51.740;-1.314;2023-04-15T09:50:56;61;58;
36453;PMS5003;22478;51.740;-1.314;2023-04-15T09:53:24;68;64;
36453;PMS5003;22478;51.740;-1.314;2023-04-15T09:55:53;63;59;
36453;PMS5003;22478;51.740;-1.314;2023-04-15T09:58:22;65;63;
36453;PMS5003;22478;51.740;-1.314;2023-04-15T10:00:51;58;55;
36453;PMS5003;22478;51.740;-1.314;2023-04-15T10:03:20;65;62;
36453;PMS5003;22478;51.740;-1.314;2023-04-15T10:05:49;41;39;
36453;PMS5003;22478;51.740;-1.314;2023-04-15T10:08:18;49;42;
36453;PMS5003;22478;51.740;-1.314;2023-04-15T10:10:46;32;30;
36453;PMS5003;22478;51.740;-1.314;2023-04-15T10:13:15;32;32;
36453;PMS5003;22478;51.740;-1.314;2023-04-15T10:15:47;28;24;
36453;PMS5003;22478;51.740;-1.314;2023-04-15T10:18:17;32;28;
36453;PMS5003;22478;51.740;-1.314;2023-04-15T10:20:46;29;25;
36453;PMS5003;22478;51.740;-1.314;2023-04-15T10:23:14;19;19;
36453;PMS5003;22478;51.740;-1.314;2023-04-15T10:25:42;19;15;
36453;PMS5003;22478;51.740;-1.314;2023-04-15T10:28:09;15;15;
36453;PMS5003;22478;51.740;-1.314;2023-04-15T10:30:37;17;16;
36453;PMS5003;22478;51.740;-1.314;2023-04-15T10:33:05;17;16;
36453;PMS5003;22478;51.740;-1.314;2023-04-15T10:35:35;17;12;
36453;PMS5003;22478;51.740;-1.314;2023-04-15T10:38:16;15;13;
36453;PMS5003;22478;51.740;-1.314;2023-04-15T10:41:10;19;19;
36453;PMS5003;22478;51.740;-1.314;2023-04-15T10:43:39;23;21;
36453;PMS5003;22478;51.740;-1.314;2023-04-15T10:46:11;24;22;
36453;PMS5003;22478;51.740;-1.314;2023-04-15T10:48:38;16;15;
36453;PMS5003;22478;51.740;-1.314;2023-04-15T10:51:13;17;16;
36453;PMS5003;22478;51.740;-1.314;2023-04-15T10:53:40;14;13;
36453;PMS5003;22478;51.740;-1.314;2023-04-15T10:56:08;14;12;
36453;PMS5003;22478;51.740;-1.314;2023-04-15T10:58:40;19;15;
36453;PMS5003;22478;51.740;-1.314;2023-04-15T11:01:08;13;12;
36453;PMS5003;22478;51.740;-1.314;2023-04-15T11:03:36;16;16;
36453;PMS5003;22478;51.740;-1.314;2023-04-15T11:06:06;13;12;
36453;PMS5003;22478;51.740;-1.314;2023-04-15T11:09:03;12;12;
36453;PMS5003;22478;51.740;-1.314;2023-04-15T11:12:35;18;15;
36453;PMS5003;22478;51.740;-1.314;2023-04-15T11:15:35;20;16;
36453;PMS5003;22478;51.740;-1.314;2023-04-15T11:18:08;9;8;
36453;PMS5003;22478;51.740;-1.314;2023-04-15T11:20:36;9;9;
36453;PMS5003;22478;51.740;-1.314;2023-04-15T11:23:05;10;10;
36453;PMS5003;22478;51.740;-1.314;2023-04-15T11:25:34;13;10;
36453;PMS5003;22478;51.740;-1.314;2023-04-15T11:28:02;12;12;
36453;PMS5003;22478;51.740;-1.314;2023-04-15T11:30:30;15;12;
36453;PMS5003;22478;51.740;-1.314;2023-04-15T11:32:59;10;10;
36453;PMS5003;22478;51.740;-1.314;2023-04-15T11:35:28;9;9;
36453;PMS5003;22478;51.740;-1.314;2023-04-15T11:37:56;13;12;
36453;PMS5003;22478;51.740;-1.314;2023-04-15T11:40:24;15;14;
36453;PMS5003;22478;51.740;-1.314;2023-04-15T11:43:02;13;11;
36453;PMS5003;22478;51.740;-1.314;2023-04-15T11:45:30;11;11;
36453;PMS5003;22478;51.740;-1.314;2023-04-15T11:48:04;11;11;
36453;PMS5003;22478;51.740;-1.314;2023-04-15T11:50:32;11;10;
36453;PMS5003;22478;51.740;-1.314;2023-04-15T11:53:00;12;12;
36453;PMS5003;22478;51.740;-1.314;2023-04-15T11:55:29;12;12;
36453;PMS5003;22478;51.740;-1.314;2023-04-15T11:58:14;9;9;
36453;PMS5003;22478;51.740;-1.314;2023-04-15T12:00:45;11;11;
36453;PMS5003;22478;51.740;-1.314;2023-04-15T12:03:16;13;13;
36453;PMS5003;22478;51.740;-1.314;2023-04-15T12:06:18;15;15;
36453;PMS5003;22478;51.740;-1.314;2023-04-15T12:08:48;14;14;
36453;PMS5003;22478;51.740;-1.314;2023-04-15T12:11:17;13;13;
36453;PMS5003;22478;51.740;-1.314;2023-04-15T12:13:44;13;13;
36453;PMS5003;22478;51.740;-1.314;2023-04-15T12:16:13;10;9;
36453;PMS5003;22478;51.740;-1.314;2023-04-15T12:18:44;14;13;
36453;PMS5003;22478;51.740;-1.314;2023-04-15T12:21:12;17;15;
36453;PMS5003;22478;51.740;-1.314;2023-04-15T12:23:39;15;15;
36453;PMS5003;22478;51.740;-1.314;2023-04-15T12:26:14;19;17;
36453;PMS5003;22478;51.740;-1.314;2023-04-15T12:28:41;22;20;
36453;PMS5003;22478;51.740;-1.314;2023-04-15T12:31:08;18;18;
36453;PMS5003;22478;51.740;-1.314;2023-04-15T12:33:36;27;23;
36453;PMS5003;22478;51.740;-1.314;2023-04-15T12:36:03;25;24;
36453;PMS5003;22478;51.740;-1.314;2023-04-15T12:38:31;30;29;
36453;PMS5003;22478;51.740;-1.314;2023-04-15T12:40:58;30;30;
36453;PMS5003;22478;51.740;-1.314;2023-04-15T12:43:25;37;34;
36453;PMS5003;22478;51.740;-1.314;2023-04-15T12:45:53;38;34;
36453;PMS5003;22478;51.740;-1.314;2023-04-15T12:48:20;40;40;
36453;PMS5003;22478;51.740;-1.314;2023-04-15T12:50:47;42;41;
36453;PMS5003;22478;51.740;-1.314;2023-04-15T12:53:14;37;35;
36453;PMS5003;22478;51.740;-1.314;2023-04-15T12:55:41;39;37;
36453;PMS5003;22478;51.740;-1.314;2023-04-15T12:58:09;35;33;
36453;PMS5003;22478;51.740;-1.314;2023-04-15T13:00:36;34;34;
36453;PMS5003;22478;51.740;-1.314;2023-04-15T13:03:03;37;37;
36453;PMS5003;22478;51.740;-1.314;2023-04-15T13:05:30;38;37;
36453;PMS5003;22478;51.740;-1.314;2023-04-15T13:07:57;38;36;
36453;PMS5003;22478;51.740;-1.314;2023-04-15T13:10:24;39;38;
36453;PMS5003;22478;51.740;-1.314;2023-04-15T13:12:52;41;38;
36453;PMS5003;22478;51.740;-1.314;2023-04-15T13:15:19;32;31;
36453;PMS5003;22478;51.740;-1.314;2023-04-15T13:17:47;32;32;
36453;PMS5003;22478;51.740;-1.314;2023-04-15T13:20:14;33;31;
36453;PMS5003;22478;51.740;-1.314;2023-04-15T13:22:41;28;27;
36453;PMS5003;22478;51.740;-1.314;2023-04-15T13:25:09;21;21;
36453;PMS5003;22478;51.740;-1.314;2023-04-15T13:27:36;30;30;
36453;PMS5003;22478;51.740;-1.314;2023-04-15T13:30:04;25;22;
36453;PMS5003;22478;51.740;-1.314;2023-04-15T13:32:33;19;18;
36453;PMS5003;22478;51.740;-1.314;2023-04-15T13:35:00;20;14;
36453;PMS5003;22478;51.740;-1.314;2023-04-15T13:37:28;13;13;
36453;PMS5003;22478;51.740;-1.314;2023-04-15T13:39:56;23;19;
36453;PMS5003;22478;51.740;-1.314;2023-04-15T13:42:23;17;14;
36453;PMS5003;22478;51.740;-1.314;2023-04-15T13:44:51;19;18;
36453;PMS5003;22478;51.740;-1.314;2023-04-15T13:47:19;25;24;
36453;PMS5003;22478;51.740;-1.314;2023-04-15T13:49:46;23;21;
36453;PMS5003;22478;51.740;-1.314;2023-04-15T13:52:13;25;24;
36453;PMS5003;22478;51.740;-1.314;2023-04-15T13:54:41;25;24;
36453;PMS5003;22478;51.740;-1.314;2023-04-15T13:57:08;34;30;
36453;PMS5003;22478;51.740;-1.314;2023-04-15T13:59:35;27;25;
36453;PMS5003;22478;51.740;-1.314;2023-04-15T14:02:02;20;20;
36453;PMS5003;22478;51.740;-1.314;2023-04-15T14:04:30;21;19;
36453;PMS5003;22478;51.740;-1.314;2023-04-15T14:06:58;21;21;
36453;PMS5003;22478;51.740;-1.314;2023-04-15T14:09:25;18;18;
36453;PMS5003;22478;51.740;-1.314;2023-04-15T14:11:53;25;21;
36453;PMS5003;22478;51.740;-1.314;2023-04-15T14:14:20;18;18;
36453;PMS5003;22478;51.740;-1.314;2023-04-15T14:16:47;19;19;
36453;PMS5003;22478;51.740;-1.314;2023-04-15T14:19:14;19;18;
36453;PMS5003;22478;51.740;-1.314;2023-04-15T14:21:41;17;17;
36453;PMS5003;22478;51.740;-1.314;2023-04-15T14:24:08;21;19;
36453;PMS5003;22478;51.740;-1.314;2023-04-15T14:26:36;17;17;
36453;PMS5003;22478;51.740;-1.314;2023-04-15T14:29:04;17;16;
36453;PMS5003;22478;51.740;-1.314;2023-04-15T14:31:31;16;16;
36453;PMS5003;22478;51.740;-1.314;2023-04-15T14:33:59;18;18;
36453;PMS5003;22478;51.740;-1.314;2023-04-15T14:36:26;16;15;
36453;PMS5003;22478;51.740;-1.314;2023-04-15T14:38:53;20;16;
36453;PMS5003;22478;51.740;-1.314;2023-04-15T14:41:20;18;14;
36453;PMS5003;22478;51.740;-1.314;2023-04-15T14:43:48;16;15;
36453;PMS5003;22478;51.740;-1.314;2023-04-15T14:46:15;17;17;
36453;PMS5003;22478;51.740;-1.314;2023-04-15T14:48:42;22;20;
36453;PMS5003;22478;51.740;-1.314;2023-04-15T14:51:10;27;27;
36453;PMS5003;22478;51.740;-1.314;2023-04-15T14:53:37;29;29;
36453;PMS5003;22478;51.740;-1.314;2023-04-15T14:56:04;25;24;
36453;PMS5003;22478;51.740;-1.314;2023-04-15T14:58:32;28;26;
36453;PMS5003;22478;51.740;-1.314;2023-04-15T15:01:00;28;26;
36453;PMS5003;22478;51.740;-1.314;2023-04-15T15:03:28;27;26;
36453;PMS5003;22478;51.740;-1.314;2023-04-15T15:05:56;25;24;
36453;PMS5003;22478;51.740;-1.314;2023-04-15T15:08:23;23;22;
36453;PMS5003;22478;51.740;-1.314;2023-04-15T15:10:51;27;26;
36453;PMS5003;22478;51.740;-1.314;2023-04-15T15:13:18;31;28;
36453;PMS5003;22478;51.740;-1.314;2023-04-15T15:15:45;27;25;
36453;PMS5003;22478;51.740;-1.314;2023-04-15T15:18:13;26;24;
36453;PMS5003;22478;51.740;-1.314;2023-04-15T15:20:41;23;21;
36453;PMS5003;22478;51.740;-1.314;2023-04-15T15:23:08;22;22;
36453;PMS5003;22478;51.740;-1.314;2023-04-15T15:25:36;25;23;
36453;PMS5003;22478;51.740;-1.314;2023-04-15T15:28:03;22;22;
36453;PMS5003;22478;51.740;-1.314;2023-04-15T15:30:31;22;21;
36453;PMS5003;22478;51.740;-1.314;2023-04-15T15:32:58;25;22;
36453;PMS5003;22478;51.740;-1.314;2023-04-15T15:35:25;26;26;
36453;PMS5003;22478;51.740;-1.314;2023-04-15T15:37:52;23;21;
36453;PMS5003;22478;51.740;-1.314;2023-04-15T15:40:19;20;19;
36453;PMS5003;22478;51.740;-1.314;2023-04-15T15:42:47;19;19;
36453;PMS5003;22478;51.740;-1.314;2023-04-15T15:45:14;28;26;
36453;PMS5003;22478;51.740;-1.314;2023-04-15T15:47:42;22;22;
36453;PMS5003;22478;51.740;-1.314;2023-04-15T15:50:09;23;23;